sensor_id;sensor_type;location;lat;lon;timestamp;pressure;altitude;pressure_sealevel;temperature;humidity
31062;BME280;17724;53.546;9.974;2023-06-22T00:03:00;101936.34;;;21.74;69.21
31062;BME280;17724;53.546;9.974;2023-06-22T00:07:00;101945.97;;;21.68;69.57
31062;BME280;17724;53.546;9.974;2023-06-22T00:11:01;101936.75;;;21.68;69.49
31062;BME280;17724;53.546;9.974;2023-06-22T00:15:01;101932.31;;;21.67;69.62
31062;BME280;17724;53.546;9.974;2023-06-22T00:19:02;101919.41;;;21.65;69.86
31062;BME280;17724;53.546;9.974;2023-06-22T00:23:05;101918.47;;;21.56;70.33
31062;BME280;17724;53.546;9.974;2023-06-22T00:27:09;101917.63;;;21.56;70.11
31062;BME280;17724;53.546;9.974;2023-06-22T00:31:09;101931.31;;;21.57;70.23
31062;BME280;17724;53.546;9.974;2023-06-22T00:35:11;101928.59;;;21.52;70.67
31062;BME280;17724;53.546;9.974;2023-06-22T00:39:13;101943.19;;;21.49;71.06
31062;BME280;17724;53.546;9.974;2023-06-22T00:43:14;101928.75;;;21.42;71.56
31062;BME280;17724;53.546;9.974;2023-06-22T00:47:16;101946.53;;;21.51;71.48
31062;BME280;17724;53.546;9.974;2023-06-22T00:51:18;101939.66;;;21.44;71.87
31062;BME280;17724;53.546;9.974;2023-06-22T00:55:24;101939.56;;;21.49;71.59
31062;BME280;17724;53.546;9.974;2023-06-22T00:59:26;101940.13;;;21.51;72.07
31062;BME280;17724;53.546;9.974;2023-06-22T01:03:27;101947.59;;;21.55;72.41
31062;BME280;17724;53.546;9.974;2023-06-22T01:07:35;101948.44;;;21.56;71.69
31062;BME280;17724;53.546;9.974;2023-06-22T01:11:39;101952.59;;;21.58;71.82
31062;BME280;17724;53.546;9.974;2023-06-22T01:15:57;101948.66;;;21.59;71.73
31062;BME280;17724;53.546;9.974;2023-06-22T01:20:00;101944.19;;;21.58;72.03
31062;BME280;17724;53.546;9.974;2023-06-22T01:24:30;101937.91;;;21.48;72.13
31062;BME280;17724;53.546;9.974;2023-06-22T01:28:41;101942.47;;;21.44;72.25
31062;BME280;17724;53.546;9.974;2023-06-22T01:32:44;101934.34;;;21.42;71.52
31062;BME280;17724;53.546;9.974;2023-06-22T01:36:45;101932.59;;;21.46;71.38
31062;BME280;17724;53.546;9.974;2023-06-22T01:40:46;101924.63;;;21.39;71.63
31062;BME280;17724;53.546;9.974;2023-06-22T01:44:47;101936.31;;;21.42;71.99
31062;BME280;17724;53.546;9.974;2023-06-22T01:48:48;101931.69;;;21.32;71.94
31062;BME280;17724;53.546;9.974;2023-06-22T01:52:48;101935.59;;;21.36;72.24
31062;BME280;17724;53.546;9.974;2023-06-22T01:56:49;101934.78;;;21.30;72.97
31062;BME280;17724;53.546;9.974;2023-06-22T02:00:58;101935.03;;;21.15;73.55
31062;BME280;17724;53.546;9.974;2023-06-22T02:05:10;101928.06;;;21.12;73.46
31062;BME280;17724;53.546;9.974;2023-06-22T02:09:15;101938.59;;;21.21;73.52
31062;BME280;17724;53.546;9.974;2023-06-22T02:13:17;101929.44;;;21.15;74.43
31062;BME280;17724;53.546;9.974;2023-06-22T02:17:18;101931.47;;;21.28;73.37
31062;BME280;17724;53.546;9.974;2023-06-22T02:21:20;101929.44;;;21.15;74.64
31062;BME280;17724;53.546;9.974;2023-06-22T02:25:21;101932.25;;;21.15;73.87
31062;BME280;17724;53.546;9.974;2023-06-22T02:29:22;101920.50;;;21.13;73.90
31062;BME280;17724;53.546;9.974;2023-06-22T02:33:22;101911.44;;;21.02;74.38
31062;BME280;17724;53.546;9.974;2023-06-22T02:37:23;101914.03;;;20.99;74.37
31062;BME280;17724;53.546;9.974;2023-06-22T02:41:25;101917.34;;;21.01;74.21
31062;BME280;17724;53.546;9.974;2023-06-22T02:45:25;101914.06;;;20.94;74.88
31062;BME280;17724;53.546;9.974;2023-06-22T02:49:26;101923.00;;;20.96;74.32
31062;BME280;17724;53.546;9.974;2023-06-22T02:53:27;101903.78;;;20.70;75.78
31062;BME280;17724;53.546;9.974;2023-06-22T02:57:27;101916.88;;;20.75;75.68
31062;BME280;17724;53.546;9.974;2023-06-22T03:01:28;101909.75;;;20.82;75.19
31062;BME280;17724;53.546;9.974;2023-06-22T03:05:31;101919.63;;;20.56;76.63
31062;BME280;17724;53.546;9.974;2023-06-22T03:09:33;101921.75;;;20.64;77.01
31062;BME280;17724;53.546;9.974;2023-06-22T03:13:34;101904.75;;;20.60;76.17
31062;BME280;17724;53.546;9.974;2023-06-22T03:17:36;101923.09;;;20.66;76.70
31062;BME280;17724;53.546;9.974;2023-06-22T03:21:37;101917.72;;;20.75;75.83
31062;BME280;17724;53.546;9.974;2023-06-22T03:25:42;101927.66;;;20.81;75.52
31062;BME280;17724;53.546;9.974;2023-06-22T03:29:45;101929.03;;;20.84;75.47
31062;BME280;17724;53.546;9.974;2023-06-22T03:33:45;101936.22;;;20.71;76.19
31062;BME280;17724;53.546;9.974;2023-06-22T03:37:46;101945.59;;;20.80;75.73
31062;BME280;17724;53.546;9.974;2023-06-22T03:41:46;101945.66;;;20.75;75.75
31062;BME280;17724;53.546;9.974;2023-06-22T03:45:47;101955.72;;;20.76;75.91
31062;BME280;17724;53.546;9.974;2023-06-22T03:49:47;101956.03;;;20.75;76.31
31062;BME280;17724;53.546;9.974;2023-06-22T03:53:48;101957.97;;;20.74;76.10
31062;BME280;17724;53.546;9.974;2023-06-22T03:57:48;101963.53;;;20.74;75.83
31062;BME280;17724;53.546;9.974;2023-06-22T04:01:49;101951.31;;;20.70;76.00
31062;BME280;17724;53.546;9.974;2023-06-22T04:05:50;101946.59;;;20.65;75.84
31062;BME280;17724;53.546;9.974;2023-06-22T04:09:51;101974.13;;;20.77;75.69
31062;BME280;17724;53.546;9.974;2023-06-22T04:13:51;101964.91;;;20.77;76.63
31062;BME280;17724;53.546;9.974;2023-06-22T04:17:52;101976.66;;;20.79;76.63
31062;BME280;17724;53.546;9.974;2023-06-22T04:21:52;101981.94;;;20.80;76.71
31062;BME280;17724;53.546;9.974;2023-06-22T04:25:53;101970.75;;;20.80;76.67
31062;BME280;17724;53.546;9.974;2023-06-22T04:29:53;101981.28;;;20.88;76.77
31062;BME280;17724;53.546;9.974;2023-06-22T04:33:53;101980.69;;;20.91;76.58
31062;BME280;17724;53.546;9.974;2023-06-22T04:37:57;101979.22;;;20.94;76.35
31062;BME280;17724;53.546;9.974;2023-06-22T04:41:58;101974.50;;;20.95;76.73
31062;BME280;17724;53.546;9.974;2023-06-22T04:46:00;101989.69;;;21.07;76.62
31062;BME280;17724;53.546;9.974;2023-06-22T04:50:03;101984.09;;;21.07;76.15
31062;BME280;17724;53.546;9.974;2023-06-22T04:54:06;101976.69;;;21.16;76.34
31062;BME280;17724;53.546;9.974;2023-06-22T04:58:07;101977.53;;;21.17;75.71
31062;BME280;17724;53.546;9.974;2023-06-22T05:02:08;101970.78;;;20.99;73.84
31062;BME280;17724;53.546;9.974;2023-06-22T05:06:09;101988.00;;;21.06;73.14
31062;BME280;17724;53.546;9.974;2023-06-22T05:10:10;101975.69;;;20.88;73.33
31062;BME280;17724;53.546;9.974;2023-06-22T05:14:12;101996.72;;;21.05;73.47
31062;BME280;17724;53.546;9.974;2023-06-22T05:18:13;101986.16;;;21.21;73.47
31062;BME280;17724;53.546;9.974;2023-06-22T05:22:16;101992.97;;;21.14;73.02
31062;BME280;17724;53.546;9.974;2023-06-22T05:26:18;101990.00;;;21.25;72.46
31062;BME280;17724;53.546;9.974;2023-06-22T05:34:19;101978.72;;;21.35;70.92
31062;BME280;17724;53.546;9.974;2023-06-22T05:38:20;101989.44;;;21.47;70.92
31062;BME280;17724;53.546;9.974;2023-06-22T05:42:21;102002.22;;;21.53;69.76
31062;BME280;17724;53.546;9.974;2023-06-22T05:46:22;101998.91;;;21.51;69.50
31062;BME280;17724;53.546;9.974;2023-06-22T05:50:23;101987.75;;;21.64;69.02
31062;BME280;17724;53.546;9.974;2023-06-22T05:54:23;101987.63;;;21.37;67.91
31062;BME280;17724;53.546;9.974;2023-06-22T05:58:24;101988.31;;;21.48;67.08
31062;BME280;17724;53.546;9.974;2023-06-22T06:02:24;101986.91;;;21.83;66.69
31062;BME280;17724;53.546;9.974;2023-06-22T06:06:25;101978.91;;;21.90;64.23
31062;BME280;17724;53.546;9.974;2023-06-22T06:10:28;101972.41;;;21.95;63.82
31062;BME280;17724;53.546;9.974;2023-06-22T06:14:32;101979.94;;;22.13;62.59
31062;BME280;17724;53.546;9.974;2023-06-22T06:18:32;101985.81;;;22.58;61.68
31062;BME280;17724;53.546;9.974;2023-06-22T06:22:33;101981.66;;;22.42;61.03
31062;BME280;17724;53.546;9.974;2023-06-22T06:26:33;101990.06;;;22.28;61.09
31062;BME280;17724;53.546;9.974;2023-06-22T06:30:34;101985.19;;;22.61;59.88
31062;BME280;17724;53.546;9.974;2023-06-22T06:34:37;101986.63;;;22.86;60.68
31062;BME280;17724;53.546;9.974;2023-06-22T06:38:37;101979.16;;;23.09;59.19
31062;BME280;17724;53.546;9.974;2023-06-22T06:42:39;101957.44;;;22.73;58.91
31062;BME280;17724;53.546;9.974;2023-06-22T06:46:41;101979.91;;;23.01;59.43
31062;BME280;17724;53.546;9.974;2023-06-22T06:50:42;101975.03;;;23.43;58.78
31062;BME280;17724;53.546;9.974;2023-06-22T06:54:44;101966.22;;;23.58;59.06
31062;BME280;17724;53.546;9.974;2023-06-22T06:58:44;101968.13;;;23.13;58.73
31062;BME280;17724;53.546;9.974;2023-06-22T07:02:45;101944.72;;;23.17;59.17
31062;BME280;17724;53.546;9.974;2023-06-22T07:06:48;101958.53;;;23.27;58.32
31062;BME280;17724;53.546;9.974;2023-06-22T07:10:48;101964.75;;;23.38;57.96
31062;BME280;17724;53.546;9.974;2023-06-22T07:14:49;101968.75;;;23.23;58.36
31062;BME280;17724;53.546;9.974;2023-06-22T07:18:50;101959.50;;;23.45;58.66
31062;BME280;17724;53.546;9.974;2023-06-22T07:22:51;101959.16;;;23.24;58.10
31062;BME280;17724;53.546;9.974;2023-06-22T07:26:51;101965.72;;;23.20;57.74
31062;BME280;17724;53.546;9.974;2023-06-22T07:30:52;101964.13;;;23.64;57.45
31062;BME280;17724;53.546;9.974;2023-06-22T07:34:52;101960.72;;;23.67;59.49
31062;BME280;17724;53.546;9.974;2023-06-22T07:38:53;101965.38;;;23.71;57.01
31062;BME280;17724;53.546;9.974;2023-06-22T07:42:53;101964.41;;;23.98;57.59
31062;BME280;17724;53.546;9.974;2023-06-22T07:46:54;101959.16;;;23.83;56.28
31062;BME280;17724;53.546;9.974;2023-06-22T07:50:55;101974.13;;;24.01;57.68
31062;BME280;17724;53.546;9.974;2023-06-22T07:54:55;101960.81;;;23.84;56.16
31062;BME280;17724;53.546;9.974;2023-06-22T07:58:56;101972.88;;;24.07;54.98
31062;BME280;17724;53.546;9.974;2023-06-22T08:02:58;101979.81;;;24.09;54.59
31062;BME280;17724;53.546;9.974;2023-06-22T08:06:59;101972.38;;;24.14;56.11
31062;BME280;17724;53.546;9.974;2023-06-22T08:10:59;101968.34;;;23.97;57.47
31062;BME280;17724;53.546;9.974;2023-06-22T08:15:00;101965.38;;;24.33;57.44
31062;BME280;17724;53.546;9.974;2023-06-22T08:19:00;101968.47;;;24.46;55.59
31062;BME280;17724;53.546;9.974;2023-06-22T08:23:01;101965.44;;;24.82;53.98
31062;BME280;17724;53.546;9.974;2023-06-22T08:27:07;101961.09;;;24.67;53.39
31062;BME280;17724;53.546;9.974;2023-06-22T08:31:09;101959.88;;;25.17;53.56
31062;BME280;17724;53.546;9.974;2023-06-22T08:35:12;101960.41;;;25.19;51.93
31062;BME280;17724;53.546;9.974;2023-06-22T08:39:13;101960.06;;;25.20;51.99
31062;BME280;17724;53.546;9.974;2023-06-22T08:43:14;101955.44;;;25.24;52.98
31062;BME280;17724;53.546;9.974;2023-06-22T08:47:14;101951.44;;;25.17;52.07
31062;BME280;17724;53.546;9.974;2023-06-22T08:51:15;101946.66;;;25.43;51.63
31062;BME280;17724;53.546;9.974;2023-06-22T08:55:15;101943.34;;;25.59;48.63
31062;BME280;17724;53.546;9.974;2023-06-22T08:59:16;101935.88;;;25.37;50.39
31062;BME280;17724;53.546;9.974;2023-06-22T09:03:16;101929.44;;;25.36;52.05
31062;BME280;17724;53.546;9.974;2023-06-22T09:07:17;101926.44;;;25.24;52.12
31062;BME280;17724;53.546;9.974;2023-06-22T09:11:22;101924.78;;;25.66;52.10
31062;BME280;17724;53.546;9.974;2023-06-22T09:15:22;101929.38;;;25.88;49.76
31062;BME280;17724;53.546;9.974;2023-06-22T09:19:23;101924.78;;;26.31;48.56
31062;BME280;17724;53.546;9.974;2023-06-22T09:23:24;101917.56;;;26.50;47.60
31062;BME280;17724;53.546;9.974;2023-06-22T09:27:24;101912.06;;;26.54;48.01
31062;BME280;17724;53.546;9.974;2023-06-22T09:31:25;101892.00;;;26.17;48.64
31062;BME280;17724;53.546;9.974;2023-06-22T09:35:26;101897.03;;;26.71;49.03
31062;BME280;17724;53.546;9.974;2023-06-22T09:39:26;101893.09;;;26.63;47.54
31062;BME280;17724;53.546;9.974;2023-06-22T09:43:27;101894.97;;;26.80;47.05
31062;BME280;17724;53.546;9.974;2023-06-22T09:47:29;101882.72;;;26.76;46.10
31062;BME280;17724;53.546;9.974;2023-06-22T09:51:29;101900.00;;;26.45;47.27
31062;BME280;17724;53.546;9.974;2023-06-22T09:55:30;101897.47;;;27.02;47.03
31062;BME280;17724;53.546;9.974;2023-06-22T09:59:30;101888.19;;;27.23;46.26
31062;BME280;17724;53.546;9.974;2023-06-22T10:03:31;101880.06;;;27.21;46.07
31062;BME280;17724;53.546;9.974;2023-06-22T10:07:31;101884.69;;;27.59;45.10
31062;BME280;17724;53.546;9.974;2023-06-22T10:11:32;101883.13;;;27.83;44.53
31062;BME280;17724;53.546;9.974;2023-06-22T10:15:35;101872.06;;;27.57;43.86
31062;BME280;17724;53.546;9.974;2023-06-22T10:19:35;101872.97;;;27.48;45.63
31062;BME280;17724;53.546;9.974;2023-06-22T10:23:37;101873.28;;;27.68;44.09
31062;BME280;17724;53.546;9.974;2023-06-22T10:27:38;101876.19;;;27.92;43.80
31062;BME280;17724;53.546;9.974;2023-06-22T10:31:42;101870.91;;;28.03;43.66
31062;BME280;17724;53.546;9.974;2023-06-22T10:35:42;101854.06;;;28.31;43.65
31062;BME280;17724;53.546;9.974;2023-06-22T10:39:43;101858.00;;;28.91;44.30
31062;BME280;17724;53.546;9.974;2023-06-22T10:43:43;101852.28;;;29.16;42.30
31062;BME280;17724;53.546;9.974;2023-06-22T10:47:44;101835.72;;;28.90;42.71
31062;BME280;17724;53.546;9.974;2023-06-22T10:51:45;101839.72;;;29.29;42.12
31062;BME280;17724;53.546;9.974;2023-06-22T10:55:45;101837.19;;;29.12;43.79
31062;BME280;17724;53.546;9.974;2023-06-22T10:59:46;101829.03;;;29.38;41.61
31062;BME280;17724;53.546;9.974;2023-06-22T11:03:46;101822.69;;;29.13;42.46
31062;BME280;17724;53.546;9.974;2023-06-22T11:07:47;101827.22;;;29.90;41.50
31062;BME280;17724;53.546;9.974;2023-06-22T11:11:51;101807.78;;;31.13;39.88
31062;BME280;17724;53.546;9.974;2023-06-22T11:15:53;101820.41;;;30.77;39.46
31062;BME280;17724;53.546;9.974;2023-06-22T11:19:54;101818.81;;;31.57;37.71
31062;BME280;17724;53.546;9.974;2023-06-22T11:23:54;101804.63;;;30.99;39.37
31062;BME280;17724;53.546;9.974;2023-06-22T11:27:55;101798.22;;;29.65;40.56
31062;BME280;17724;53.546;9.974;2023-06-22T11:31:55;101804.88;;;29.13;41.59
31062;BME280;17724;53.546;9.974;2023-06-22T11:35:56;101789.69;;;28.65;43.80
31062;BME280;17724;53.546;9.974;2023-06-22T11:39:57;101790.75;;;29.01;42.94
31062;BME280;17724;53.546;9.974;2023-06-22T11:43:58;101783.91;;;28.61;43.70
31062;BME280;17724;53.546;9.974;2023-06-22T11:47:59;101774.59;;;29.01;43.69
31062;BME280;17724;53.546;9.974;2023-06-22T11:51:59;101783.00;;;28.45;43.79
31062;BME280;17724;53.546;9.974;2023-06-22T11:56:01;101783.00;;;27.96;44.49
31062;BME280;17724;53.546;9.974;2023-06-22T12:00:05;101775.25;;;28.05;44.83
31062;BME280;17724;53.546;9.974;2023-06-22T12:04:17;101779.13;;;28.00;45.31
31062;BME280;17724;53.546;9.974;2023-06-22T12:08:18;101759.53;;;27.59;46.19
31062;BME280;17724;53.546;9.974;2023-06-22T12:12:19;101759.56;;;27.83;45.79
31062;BME280;17724;53.546;9.974;2023-06-22T12:16:19;101748.59;;;27.69;46.38
31062;BME280;17724;53.546;9.974;2023-06-22T12:20:22;101746.13;;;28.17;46.76
31062;BME280;17724;53.546;9.974;2023-06-22T12:24:22;101749.06;;;28.33;45.65
31062;BME280;17724;53.546;9.974;2023-06-22T12:28:23;101740.56;;;27.59;46.65
31062;BME280;17724;53.546;9.974;2023-06-22T12:32:23;101729.16;;;28.05;46.61
31062;BME280;17724;53.546;9.974;2023-06-22T12:36:24;101734.16;;;28.36;46.08
31062;BME280;17724;53.546;9.974;2023-06-22T12:40:25;101717.19;;;28.36;46.49
31062;BME280;17724;53.546;9.974;2023-06-22T12:44:28;101718.97;;;28.28;46.14
31062;BME280;17724;53.546;9.974;2023-06-22T12:48:29;101728.19;;;28.25;45.89
31062;BME280;17724;53.546;9.974;2023-06-22T12:52:30;101713.50;;;27.83;46.25
31062;BME280;17724;53.546;9.974;2023-06-22T12:56:32;101710.09;;;28.02;47.21
31062;BME280;17724;53.546;9.974;2023-06-22T13:00:33;101700.06;;;28.04;45.88
31062;BME280;17724;53.546;9.974;2023-06-22T13:04:33;101705.09;;;28.23;47.07
31062;BME280;17724;53.546;9.974;2023-06-22T13:08:35;101712.50;;;28.28;45.93
31062;BME280;17724;53.546;9.974;2023-06-22T13:12:35;101712.81;;;27.98;46.34
31062;BME280;17724;53.546;9.974;2023-06-22T13:16:36;101700.25;;;26.92;47.84
31062;BME280;17724;53.546;9.974;2023-06-22T13:20:36;101705.25;;;27.53;47.28
31062;BME280;17724;53.546;9.974;2023-06-22T13:24:37;101696.41;;;27.42;47.64
31062;BME280;17724;53.546;9.974;2023-06-22T13:28:38;101699.94;;;27.64;47.39
31062;BME280;17724;53.546;9.974;2023-06-22T13:32:38;101693.09;;;27.65;47.24
31062;BME280;17724;53.546;9.974;2023-06-22T13:36:41;101707.00;;;27.45;47.48
31062;BME280;17724;53.546;9.974;2023-06-22T13:40:42;101691.94;;;27.66;47.16
31062;BME280;17724;53.546;9.974;2023-06-22T13:44:43;101688.44;;;27.93;47.59
31062;BME280;17724;53.546;9.974;2023-06-22T13:48:43;101670.41;;;27.61;47.34
31062;BME280;17724;53.546;9.974;2023-06-22T13:52:44;101666.75;;;27.85;47.31
31062;BME280;17724;53.546;9.974;2023-06-22T13:56:44;101663.66;;;28.03;47.14
31062;BME280;17724;53.546;9.974;2023-06-22T14:00:45;101654.47;;;28.06;47.23
31062;BME280;17724;53.546;9.974;2023-06-22T14:04:45;101651.88;;;28.13;47.26
31062;BME280;17724;53.546;9.974;2023-06-22T14:08:46;101650.94;;;27.96;46.86
31062;BME280;17724;53.546;9.974;2023-06-22T14:12:47;101646.25;;;27.76;47.34
31062;BME280;17724;53.546;9.974;2023-06-22T14:16:47;101646.38;;;27.55;47.75
31062;BME280;17724;53.546;9.974;2023-06-22T14:20:50;101646.75;;;27.41;47.96
31062;BME280;17724;53.546;9.974;2023-06-22T14:24:50;101645.91;;;27.41;48.29
31062;BME280;17724;53.546;9.974;2023-06-22T14:28:52;101635.91;;;27.31;48.50
31062;BME280;17724;53.546;9.974;2023-06-22T14:32:53;101634.03;;;27.35;50.58
31062;BME280;17724;53.546;9.974;2023-06-22T14:36:53;101632.66;;;27.08;52.67
31062;BME280;17724;53.546;9.974;2023-06-22T14:40:54;101637.09;;;26.85;53.16
31062;BME280;17724;53.546;9.974;2023-06-22T14:44:54;101621.06;;;26.76;53.24
31062;BME280;17724;53.546;9.974;2023-06-22T14:48:55;101626.41;;;26.90;53.11
31062;BME280;17724;53.546;9.974;2023-06-22T14:52:55;101619.56;;;26.79;53.16
31062;BME280;17724;53.546;9.974;2023-06-22T14:56:56;101614.28;;;26.77;53.52
31062;BME280;17724;53.546;9.974;2023-06-22T15:00:56;101617.34;;;26.85;51.95
31062;BME280;17724;53.546;9.974;2023-06-22T15:04:57;101611.78;;;26.76;52.29
31062;BME280;17724;53.546;9.974;2023-06-22T15:08:57;101608.00;;;26.60;52.38
31062;BME280;17724;53.546;9.974;2023-06-22T15:13:01;101605.16;;;26.60;51.75
31062;BME280;17724;53.546;9.974;2023-06-22T15:17:02;101578.50;;;26.36;52.36
31062;BME280;17724;53.546;9.974;2023-06-22T15:21:03;101583.53;;;26.31;52.56
31062;BME280;17724;53.546;9.974;2023-06-22T15:25:04;101584.00;;;26.53;52.64
31062;BME280;17724;53.546;9.974;2023-06-22T15:29:04;101574.97;;;26.72;52.67
31062;BME280;17724;53.546;9.974;2023-06-22T15:33:05;101564.63;;;26.64;52.20
31062;BME280;17724;53.546;9.974;2023-06-22T15:37:06;101567.56;;;26.68;52.54
31062;BME280;17724;53.546;9.974;2023-06-22T15:41:06;101564.41;;;26.69;52.92
31062;BME280;17724;53.546;9.974;2023-06-22T15:45:07;101549.81;;;26.67;52.56
31062;BME280;17724;53.546;9.974;2023-06-22T15:49:08;101539.25;;;26.76;53.16
31062;BME280;17724;53.546;9.974;2023-06-22T15:53:08;101534.78;;;26.75;53.20
31062;BME280;17724;53.546;9.974;2023-06-22T15:57:09;101526.53;;;26.58;53.57
31062;BME280;17724;53.546;9.974;2023-06-22T16:01:13;101519.59;;;26.56;54.08
31062;BME280;17724;53.546;9.974;2023-06-22T16:05:13;101511.22;;;26.47;54.57
31062;BME280;17724;53.546;9.974;2023-06-22T16:09:14;101507.78;;;26.41;54.42
31062;BME280;17724;53.546;9.974;2023-06-22T16:13:14;101512.09;;;26.26;54.25
31062;BME280;17724;53.546;9.974;2023-06-22T16:17:16;101512.09;;;26.26;54.29
31062;BME280;17724;53.546;9.974;2023-06-22T16:21:16;101501.88;;;26.34;54.40
31062;BME280;17724;53.546;9.974;2023-06-22T16:25:17;101492.91;;;26.20;54.09
31062;BME280;17724;53.546;9.974;2023-06-22T16:29:17;101495.72;;;26.20;54.18
31062;BME280;17724;53.546;9.974;2023-06-22T16:33:18;101503.63;;;26.26;54.19
31062;BME280;17724;53.546;9.974;2023-06-22T16:37:19;101496.41;;;26.17;53.76
31062;BME280;17724;53.546;9.974;2023-06-22T16:41:20;101492.22;;;26.23;54.10
31062;BME280;17724;53.546;9.974;2023-06-22T16:45:21;101493.16;;;26.27;53.25
31062;BME280;17724;53.546;9.974;2023-06-22T16:49:22;101490.09;;;26.20;53.11
31062;BME280;17724;53.546;9.974;2023-06-22T16:53:22;101487.25;;;26.08;53.59
31062;BME280;17724;53.546;9.974;2023-06-22T16:57:23;101479.13;;;26.06;53.11
31062;BME280;17724;53.546;9.974;2023-06-22T17:01:25;101475.53;;;25.85;53.34
31062;BME280;17724;53.546;9.974;2023-06-22T17:05:26;101459.34;;;25.73;53.82
31062;BME280;17724;53.546;9.974;2023-06-22T17:09:27;101468.59;;;25.82;54.06
31062;BME280;17724;53.546;9.974;2023-06-22T17:13:27;101474.47;;;25.68;54.38
31062;BME280;17724;53.546;9.974;2023-06-22T17:17:28;101464.06;;;25.27;55.58
31062;BME280;17724;53.546;9.974;2023-06-22T17:21:30;101458.88;;;25.29;56.35
31062;BME280;17724;53.546;9.974;2023-06-22T17:25:34;101449.91;;;25.15;55.62
31062;BME280;17724;53.546;9.974;2023-06-22T17:29:37;101449.41;;;25.13;55.19
31062;BME280;17724;53.546;9.974;2023-06-22T17:33:38;101447.59;;;25.08;54.57
31062;BME280;17724;53.546;9.974;2023-06-22T17:37:53;101444.47;;;25.10;55.61
31062;BME280;17724;53.546;9.974;2023-06-22T17:41:53;101440.38;;;24.98;55.32
31062;BME280;17724;53.546;9.974;2023-06-22T17:45:58;101439.06;;;24.96;55.95
31062;BME280;17724;53.546;9.974;2023-06-22T17:50:06;101450.53;;;24.91;55.36
31062;BME280;17724;53.546;9.974;2023-06-22T17:54:08;101460.22;;;25.02;55.03
31062;BME280;17724;53.546;9.974;2023-06-22T17:58:09;101455.03;;;24.83;54.64
31062;BME280;17724;53.546;9.974;2023-06-22T18:02:11;101453.25;;;24.78;54.30
31062;BME280;17724;53.546;9.974;2023-06-22T18:06:12;101460.34;;;24.76;54.10
31062;BME280;17724;53.546;9.974;2023-06-22T18:10:13;101468.06;;;24.58;52.98
31062;BME280;17724;53.546;9.974;2023-06-22T18:14:15;101472.41;;;24.29;52.17
31062;BME280;17724;53.546;9.974;2023-06-22T18:18:16;101457.81;;;23.98;52.00
31062;BME280;17724;53.546;9.974;2023-06-22T18:22:18;101465.41;;;23.80;51.90
31062;BME280;17724;53.546;9.974;2023-06-22T18:26:24;101467.72;;;23.87;51.68
31062;BME280;17724;53.546;9.974;2023-06-22T18:30:26;101455.16;;;23.84;51.97
31062;BME280;17724;53.546;9.974;2023-06-22T18:34:28;101447.03;;;24.08;51.60
31062;BME280;17724;53.546;9.974;2023-06-22T18:38:28;101433.69;;;23.88;50.86
31062;BME280;17724;53.546;9.974;2023-06-22T18:42:29;101425.59;;;23.87;50.75
31062;BME280;17724;53.546;9.974;2023-06-22T18:50:44;101403.66;;;23.71;50.40
31062;BME280;17724;53.546;9.974;2023-06-22T18:54:48;101386.97;;;23.75;50.29
31062;BME280;17724;53.546;9.974;2023-06-22T18:58:56;101368.91;;;23.84;49.80
31062;BME280;17724;53.546;9.974;2023-06-22T19:02:58;101362.53;;;23.58;49.69
31062;BME280;17724;53.546;9.974;2023-06-22T19:06:59;101370.25;;;23.70;49.36
31062;BME280;17724;53.546;9.974;2023-06-22T19:11:11;101371.06;;;23.88;49.24
31062;BME280;17724;53.546;9.974;2023-06-22T19:15:12;101374.91;;;23.66;49.09
31062;BME280;17724;53.546;9.974;2023-06-22T19:19:15;101371.41;;;23.77;49.30
31062;BME280;17724;53.546;9.974;2023-06-22T19:23:27;101372.75;;;23.63;49.34
31062;BME280;17724;53.546;9.974;2023-06-22T19:27:29;101394.06;;;23.72;48.70
31062;BME280;17724;53.546;9.974;2023-06-22T19:31:30;101420.63;;;23.57;48.45
31062;BME280;17724;53.546;9.974;2023-06-22T19:35:32;101411.25;;;23.71;48.35
31062;BME280;17724;53.546;9.974;2023-06-22T19:39:36;101412.38;;;23.70;47.27
31062;BME280;17724;53.546;9.974;2023-06-22T19:43:36;101405.78;;;23.66;46.65
31062;BME280;17724;53.546;9.974;2023-06-22T19:47:38;101405.78;;;23.66;45.54
31062;BME280;17724;53.546;9.974;2023-06-22T19:51:39;101403.63;;;23.63;45.44
31062;BME280;17724;53.546;9.974;2023-06-22T19:55:45;101415.03;;;23.49;45.73
31062;BME280;17724;53.546;9.974;2023-06-22T19:59:45;101410.38;;;23.61;46.17
31062;BME280;17724;53.546;9.974;2023-06-22T20:03:49;101421.63;;;23.53;47.24
31062;BME280;17724;53.546;9.974;2023-06-22T20:07:49;101421.78;;;23.56;47.27
31062;BME280;17724;53.546;9.974;2023-06-22T20:11:58;101421.47;;;23.41;47.36
31062;BME280;17724;53.546;9.974;2023-06-22T20:16:08;101417.50;;;23.16;47.56
31062;BME280;17724;53.546;9.974;2023-06-22T20:20:18;101426.03;;;22.93;48.41
31062;BME280;17724;53.546;9.974;2023-06-22T20:24:19;101429.88;;;22.57;49.71
31062;BME280;17724;53.546;9.974;2023-06-22T20:28:20;101437.66;;;22.69;51.31
31062;BME280;17724;53.546;9.974;2023-06-22T20:32:21;101447.44;;;22.41;53.20
31062;BME280;17724;53.546;9.974;2023-06-22T20:36:21;101446.66;;;22.18;55.08
31062;BME280;17724;53.546;9.974;2023-06-22T20:40:24;101456.22;;;22.17;58.38
31062;BME280;17724;53.546;9.974;2023-06-22T20:44:28;101451.97;;;21.97;67.92
31062;BME280;17724;53.546;9.974;2023-06-22T20:48:28;101453.00;;;21.78;73.51
31062;BME280;17724;53.546;9.974;2023-06-22T20:52:29;101459.00;;;21.49;72.07
31062;BME280;17724;53.546;9.974;2023-06-22T20:56:30;101454.50;;;20.29;84.48
31062;BME280;17724;53.546;9.974;2023-06-22T21:00:34;101439.91;;;19.15;100.00
31062;BME280;17724;53.546;9.974;2023-06-22T21:04:35;101434.41;;;18.43;100.00
31062;BME280;17724;53.546;9.974;2023-06-22T21:08:35;101432.75;;;18.13;100.00
31062;BME280;17724;53.546;9.974;2023-06-22T21:12:36;101410.03;;;17.72;100.00